地図

経路データ

SID SEASON NUMBER BASIN SUBBASIN NAME ISO_TIME NATURE LAT LON WMO_WIND WMO_PRES WMO_AGENCY TRACK_TYPE DIST2LAND LANDFALL IFLAG USA_AGENCY USA_ATCF_ID USA_LAT USA_LON USA_RECORD USA_STATUS USA_WIND USA_PRES USA_SSHS USA_R34_NE USA_R34_SE USA_R34_SW USA_R34_NW USA_R50_NE USA_R50_SE USA_R50_SW USA_R50_NW USA_R64_NE USA_R64_SE USA_R64_SW USA_R64_NW USA_POCI USA_ROCI USA_RMW USA_EYE TOKYO_LAT TOKYO_LON TOKYO_GRADE TOKYO_WIND TOKYO_PRES TOKYO_R50_DIR TOKYO_R50_LONG TOKYO_R50_SHORT TOKYO_R30_DIR TOKYO_R30_LONG TOKYO_R30_SHORT TOKYO_LAND CMA_LAT CMA_LON CMA_CAT CMA_WIND CMA_PRES HKO_LAT HKO_LON HKO_CAT HKO_WIND HKO_PRES NEWDELHI_LAT NEWDELHI_LON NEWDELHI_GRADE NEWDELHI_WIND NEWDELHI_PRES NEWDELHI_CI NEWDELHI_DP NEWDELHI_POCI REUNION_LAT REUNION_LON REUNION_TYPE REUNION_WIND REUNION_PRES REUNION_TNUM REUNION_CI REUNION_RMW REUNION_R34_NE REUNION_R34_SE REUNION_R34_SW REUNION_R34_NW REUNION_R50_NE REUNION_R50_SE REUNION_R50_SW REUNION_R50_NW REUNION_R64_NE REUNION_R64_SE REUNION_R64_SW REUNION_R64_NW BOM_LAT BOM_LON BOM_TYPE BOM_WIND BOM_PRES BOM_TNUM BOM_CI BOM_RMW BOM_R34_NE BOM_R34_SE BOM_R34_SW BOM_R34_NW BOM_R50_NE BOM_R50_SE BOM_R50_SW BOM_R50_NW BOM_R64_NE BOM_R64_SE BOM_R64_SW BOM_R64_NW BOM_ROCI BOM_POCI BOM_EYE BOM_POS_METHOD BOM_PRES_METHOD NADI_LAT NADI_LON NADI_CAT NADI_WIND NADI_PRES WELLINGTON_LAT WELLINGTON_LON WELLINGTON_WIND WELLINGTON_PRES DS824_LAT DS824_LON DS824_STAGE DS824_WIND DS824_PRES TD9636_LAT TD9636_LON TD9636_STAGE TD9636_WIND TD9636_PRES TD9635_LAT TD9635_LON TD9635_WIND TD9635_PRES TD9635_ROCI NEUMANN_LAT NEUMANN_LON NEUMANN_CLASS NEUMANN_WIND NEUMANN_PRES MLC_LAT MLC_LON MLC_CLASS MLC_WIND MLC_PRES USA_GUST BOM_GUST BOM_GUST_PER REUNION_GUST REUNION_GUST_PER USA_SEAHGT USA_SEARAD_NE USA_SEARAD_SE USA_SEARAD_SW USA_SEARAD_NW STORM_SPEED STORM_DIR
1989122S09162 1989 36 SP MM MEENA 1989-05-01 12:00:00 TS -9.10000 161.700 main 45 45 O_________O_O_ jtwc_sh SH271989 -9.10000 161.700 15 -1 -9.10000 161.700 1 15 -9.10000 161.700 TC 15 1 137
1989122S09162 1989 36 SP MM MEENA 1989-05-01 15:00:00 TS -9.15021 161.746 main 43 43 P_________P_P_ SH271989 -9.14250 161.758 17 -1 -9.16562 161.723 1 17 -9.14250 161.758 TC 17 1 145
1989122S09162 1989 36 SP MM MEENA 1989-05-01 18:00:00 TS -9.21167 161.783 main 54 49 O_________P_O_ jtwc_sh SH271989 -9.20000 161.800 20 -1 -9.23499 161.748 1 20 -9.20000 161.800 TC 20 2 160
1989122S09162 1989 36 SP MM MEENA 1989-05-01 21:00:00 TS -9.29395 161.801 main 49 45 P_________P_P_ SH271989 -9.28500 161.815 22 -1 -9.31187 161.773 1 22 -9.28500 161.815 TC 22 2 173
1989122S09162 1989 36 SP MM MEENA 1989-05-02 00:00:00 TS -9.40000 161.800 main 45 43 O_________O_O_ jtwc_sh SH271989 -9.40000 161.800 25 -1 -9.40000 161.800 1 25 -9.40000 161.800 TC 25 2 189
1989122S09162 1989 36 SP MM MEENA 1989-05-02 03:00:00 TS -9.52521 161.771 main 43 32 P_________P_P_ SH271989 -9.53500 161.743 25 -1 -9.50563 161.827 1 25 -9.53500 161.743 TC 25 3 192
1989122S09162 1989 36 SP MM MEENA 1989-05-02 06:00:00 TS -9.68167 161.748 main 34 34 O_________P_O_ jtwc_sh SH271989 -9.70000 161.700 25 -1 -9.64500 161.845 1 25 -9.70000 161.700 TC 25 3 179
1989122S09162 1989 36 SP MM MEENA 1989-05-02 09:00:00 TS -9.84896 161.780 main 49 31 P_________P_P_ SH271989 -9.85501 161.750 25 -1 -9.83687 161.840 1 25 -9.85501 161.750 TC 25 4 172
1989122S09162 1989 36 SP MM MEENA 1989-05-02 12:00:00 TS -10.1000 161.800 main 31 0 O_________O_O_ jtwc_sh SH271989 -10.1000 161.800 25 -1 -10.1000 161.800 1 25 -10.1000 161.800 TC 25 7 182
1989122S09162 1989 36 SP MM MEENA 1989-05-02 15:00:00 TS -10.5302 161.747 main 0 0 P_________P_P_ SH271989 -10.5200 161.787 25 -1 -10.5507 161.667 1 25 -10.5200 161.787 TC 25 9 190
1989122S09162 1989 36 SP MM MEENA 1989-05-02 18:00:00 TS -11.0184 161.635 main 31 31 O_________P_O_ jtwc_sh SH271989 -11.0000 161.700 25 -1 -11.0551 161.506 1 25 -11.0000 161.700 TC 25 10 198
1989122S09162 1989 36 SP MM MEENA 1989-05-02 21:00:00 TS -11.5007 161.426 main 89 89 P_________P_P_ SH271989 -11.4975 161.455 25 -1 -11.5069 161.367 1 25 -11.4975 161.455 TC 25 9 203
1989122S09162 1989 36 SP MM MEENA 1989-05-03 00:00:00 TS -11.8000 161.300 main 124 105 O_________O_O_ jtwc_sh SH271989 -11.8000 161.300 25 -1 -11.8000 161.300 1 25 -11.8000 161.300 TC 25 2 165
1989122S09162 1989 36 SP MM MEENA 1989-05-03 03:00:00 TS -11.6993 161.482 main 105 79 P_________P_P_ SH271989 -11.6826 161.513 25 -1 -11.7326 161.420 1 26 -11.6826 161.513 TC 25 6 50
1989122S09162 1989 36 SP MM MEENA 1989-05-03 06:00:00 TS -11.4367 161.736 main 68 44 O_________P_O_ jtwc_sh SH271989 -11.4000 161.800 25 -1 -11.5102 161.608 1 27 -11.4000 161.800 TC 25 6 38
1989122S09162 1989 36 SP MM MEENA 1989-05-03 09:00:00 TS -11.2075 161.876 main 44 33 P_________P_P_ SH271989 -11.1824 161.917 27 -1 -11.2576 161.792 1 28 -11.1824 161.917 TC 27 4 25
1989122S09162 1989 36 SP MM MEENA 1989-05-03 12:00:00 TS -11.0769 161.900 30 997 wellington main 33 33 O_______O_O_O_ jtwc_sh SH271989 -11.1000 161.900 30 -1 -10.8000 161.900 30 997 -11.1000 161.900 1 30 -11.1000 161.900 TC 30 1 253
1989122S09162 1989 36 SP MM MEENA 1989-05-03 15:00:00 TS -11.2416 161.763 main 44 44 P_______P_P_P_ SH271989 -11.2976 161.723 30 -1 -11.0725 161.815 30 997 -11.2141 161.816 1 30 -11.2976 161.723 TC 30 5 216
1989122S09162 1989 36 SP MM MEENA 1989-05-03 18:00:00 TS -11.5167 161.581 30 997 wellington main 81 81 O_______O_P_O_ jtwc_sh SH271989 -11.6000 161.500 30 -1 -11.4000 161.700 30 997 -11.4376 161.653 1 30 -11.6000 161.500 TC 30 6 210
1989122S09162 1989 36 SP MM MEENA 1989-05-03 21:00:00 TS -11.7849 161.436 main 120 120 P_______P_P_P_ SH271989 -11.8075 161.370 30 -1 -11.8075 161.543 30 997 -11.7173 161.463 1 30 -11.8075 161.370 TC 30 6 205
1989122S09162 1989 36 SP MM MEENA 1989-05-04 00:00:00 TS -12.0500 161.325 30 997 wellington main 145 145 O_______O_O_O_ jtwc_sh SH271989 -12.0000 161.300 30 -1 -12.2000 161.400 30 997 -12.0000 161.300 1 30 -12.0000 161.300 TC 30 5 195
1989122S09162 1989 36 SP MM MEENA 1989-05-04 03:00:00 TS -12.2718 161.300 main 176 176 P_______P_P_P_ SH271989 -12.2000 161.292 30 -1 -12.4800 161.342 30 997 -12.2071 161.271 1 31 -12.2000 161.292 TC 30 4 184
1989122S09162 1989 36 SP MM MEENA 1989-05-04 06:00:00 TS -12.4768 161.293 30 997 wellington main 198 198 O_______O_P_O_ jtwc_sh SH271989 -12.4000 161.300 30 -1 -12.7000 161.300 30 997 -12.4073 161.272 1 32 -12.4000 161.300 TC 30 4 185
1989122S09162 1989 36 SP MM MEENA 1989-05-04 09:00:00 TS -12.6797 161.259 main 219 219 P_______P_P_P_ SH271989 -12.6000 161.272 32 -1 -12.9150 161.230 30 997 -12.6039 161.262 1 33 -12.6000 161.272 TC 32 4 195
1989122S09162 1989 36 SP MM MEENA 1989-05-04 12:00:00 TS -12.8750 161.175 30 997 wellington main 244 244 O_______O_O_O_ jtwc_sh SH271989 -12.8000 161.200 35 0 -13.1000 161.100 30 997 -12.8000 161.200 2 35 -12.8000 161.200 TC 35 5 211
1989122S09162 1989 36 SP MM MEENA 1989-05-04 15:00:00 TS -13.0651 161.026 main 271 271 P_______P_P_P_ SH271989 -13.0000 161.087 37 0 -13.2725 160.880 32 996 -12.9878 161.049 2 37 -13.0000 161.087 TC 37 5 224
1989122S09162 1989 36 SP MM MEENA 1989-05-04 18:00:00 TS -13.2444 160.810 35 995 wellington main 289 289 O_______O_P_O_ jtwc_sh SH271989 -13.2000 160.900 40 0 -13.4000 160.600 35 995 -13.1775 160.840 2 40 -13.2000 160.900 TC 40 6 235
1989122S09162 1989 36 SP MM MEENA 1989-05-04 21:00:00 TS -13.3996 160.535 main 323 323 P_______P_P_P_ SH271989 -13.3851 160.615 42 0 -13.4499 160.322 37 992 -13.3784 160.586 2 42 -13.3851 160.615 TC 42 7 241
1989122S09162 1989 36 SP MM MEENA 1989-05-05 00:00:00 TS -13.5647 160.212 35 994 bom main 358 358 O_____O_O_O_O_ jtwc_sh SH271989 -13.6000 160.300 45 0 -13.4000 160.000 30 35 994 3.00000 134 3 6 -13.5000 160.000 40 990 -13.6000 160.300 2 45 -13.6000 160.300 TC 45 49 49 7 238
1989122S09162 1989 36 SP EA MEENA 1989-05-05 03:00:00 TS -13.7850 159.904 main 394 394 P_____P_P_P_P_ SH271989 -13.8924 160.065 45 0 -13.5627 159.608 30 37 993 134 -13.6051 159.600 40 990 -13.8612 160.036 2 45 -13.8924 160.065 TC 45 8 232
1989122S09162 1989 36 SP EA MEENA 1989-05-05 06:00:00 TS -14.0404 159.582 40 992 bom main 430 430 O_____O_O_P_O_ jtwc_sh SH271989 -14.2000 159.800 45 0 -13.8000 159.300 30 40 992 3.00000 134 3 6 -13.8000 159.200 40 990 -14.1420 159.740 2 45 -14.2000 159.800 TC 45 55 55 8 230
1989122S09162 1989 36 SP EA MEENA 1989-05-05 09:00:00 TS -14.3233 159.255 main 476 476 P_____P_P_P_P_ SH271989 -14.4574 159.437 45 0 -14.1623 159.115 30 40 992 215 -14.1124 158.885 40 990 -14.4267 159.398 2 45 -14.4574 159.437 TC 45 9 228
1989122S09162 1989 36 SP EA MEENA 1989-05-05 12:00:00 TS -14.6400 158.900 40 992 bom main 529 529 O_____O_O_O_O_ jtwc_sh SH271989 -14.7000 159.000 45 0 -14.6000 158.900 30 40 992 3.00000 296 3 6 -14.5000 158.600 40 990 -14.7000 159.000 2 45 -14.7000 159.000 TC 45 55 55 10 227
1989122S09162 1989 36 SP EA MEENA 1989-05-05 15:00:00 TS -15.0054 158.494 main 590 590 P_____P_P_P_P_ SH271989 -14.9574 158.522 45 0 -15.1246 158.548 30 40 992 309 -14.9747 158.353 42 988 -15.0128 158.526 2 45 -14.9574 158.522 TC 45 11 233
1989122S09162 1989 36 SP EA MEENA 1989-05-05 18:00:00 TS -15.3001 157.999 40 992 bom main 646 646 O_____O_O_P_O_ jtwc_sh SH271989 -15.2000 158.000 45 0 -15.5000 158.000 30 40 992 3.00000 323 3 6 -15.3000 158.000 45 987 -15.3004 157.997 2 45 -15.2000 158.000 TC 45 55 55 12 248
1989122S09162 1989 36 SP EA MEENA 1989-05-05 21:00:00 TS -15.4417 157.379 main 679 679 P_____P_P_P_P_ SH271989 -15.4750 157.443 45 0 -15.4906 157.179 30 40 992 377 -15.2553 157.387 45 987 -15.5128 157.444 2 45 -15.4750 157.443 TC 45 12 264
1989122S09162 1989 36 SP EA MEENA 1989-05-06 00:00:00 TS -15.4200 156.740 40 992 bom main 711 711 O_____O_O_O_O_ jtwc_sh SH271989 -15.6000 156.900 45 0 -15.3000 156.300 30 40 992 3.00000 431 3 6 -15.0000 156.700 45 987 -15.6000 156.900 2 45 -15.6000 156.900 TC 45 55 55 11 280
1989122S09162 1989 36 SP EA MEENA 1989-05-06 03:00:00 TS -15.2497 156.207 main 720 720 P_____P_P_P_P_ SH271989 -15.4098 156.442 47 0 -15.1948 155.583 30 45 991 377 -14.7148 156.127 45 987 -15.5196 156.442 2 45 -15.4098 156.442 TC 47 11 294
1989122S09162 1989 36 SP EA MEENA 1989-05-06 06:00:00 TS -14.9827 155.719 50 990 bom main 732 678 O_____O_O_P_O_ jtwc_sh SH271989 -15.1000 156.000 50 0 -15.0000 155.000 30 50 990 3.50000 323 2 9 -14.4000 155.600 45 987 -15.3135 155.994 2 45 -15.1000 156.000 TC 50 69 69 11 300
1989122S09162 1989 36 SP EA MEENA 1989-05-06 09:00:00 TS -14.7210 155.243 main 670 623 P_____P_P_P_P_ SH271989 -14.9075 155.500 47 0 -14.6146 154.577 30 42 992 296 -14.1497 155.115 45 987 -15.0257 155.524 2 45 -14.9075 155.500 TC 47 11 300
1989122S09162 1989 36 SP EA MEENA 1989-05-06 12:00:00 TS -14.4400 154.760 35 995 bom main 615 561 O_____O_O_O_O_ jtwc_sh SH271989 -14.7000 155.000 45 0 -14.2000 154.200 30 35 995 3.00000 269 2 9 -13.9000 154.600 45 987 -14.7000 155.000 2 45 -14.7000 155.000 TC 45 49 49 11 301
1989122S09162 1989 36 SP EA MEENA 1989-05-06 15:00:00 TS -14.1505 154.255 main 561 492 P_____P_P_P_P_ SH271989 -14.4218 154.610 42 0 -13.9124 153.730 30 35 995 269 -13.6000 153.972 45 987 -14.3963 154.354 2 43 -14.4218 154.610 TC 42 12 299
1989122S09162 1989 36 SP EA MEENA 1989-05-06 18:00:00 TS -13.8532 153.671 35 995 bom main 492 418 O_____O_O_P_O_ jtwc_sh SH271989 -14.1000 154.100 40 0 -13.7000 153.200 30 35 995 3.00000 269 2 9 -13.3000 153.300 45 987 -14.0659 153.657 2 42 -14.1000 154.100 TC 40 49 49 14 295
1989122S09162 1989 36 SP EA MEENA 1989-05-06 21:00:00 TS -13.5568 152.926 main 412 343 P_____P_P_P_P_ SH271989 -13.7507 153.222 40 0 -13.5350 152.615 30 35 995 255 -13.0201 152.612 45 987 -13.7275 152.957 2 41 -13.7507 153.222 TC 40 16 292
1989122S09162 1989 36 SP EA MEENA 1989-05-07 00:00:00 TS -13.2800 152.180 35 995 bom main 343 286 O_____O_O_O_O_ jtwc_sh SH271989 -13.4000 152.300 40 0 -13.4000 152.000 30 35 995 3.00000 242 3 6 -12.8000 152.000 45 987 -13.4000 152.300 2 40 -13.4000 152.300 TC 40 49 49 14 292
1989122S09162 1989 36 SP EA MEENA 1989-05-07 03:00:00 TS -13.0292 151.590 main 286 247 P_____P_P_P_P_ SH271989 -13.0847 151.625 37 0 -13.2499 151.393 30 35 995 228 -12.6697 151.578 45 987 -13.0573 151.730 2 38 -13.0847 151.625 TC 37 12 294
1989122S09162 1989 36 SP EA MEENA 1989-05-07 06:00:00 TS -12.8074 151.082 35 995 bom main 247 213 O_____O_O_P_O_ jtwc_sh SH271989 -12.8000 151.100 35 0 -13.1000 150.800 30 35 995 3.00000 215 3 6 -12.6000 151.200 45 987 -12.7369 151.210 2 37 -12.8000 151.100 TC 35 49 49 11 295
1989122S09162 1989 36 SP EA MEENA 1989-05-07 09:00:00 TS -12.5830 150.610 main 213 190 P_____P_P_P_P_ SH271989 -12.4898 150.678 35 0 -12.9272 150.257 30 35 995 201 -12.5351 150.700 45 987 -12.4731 150.736 2 36 -12.4898 150.678 TC 35 10 292
1989122S09162 1989 36 SP EA MEENA 1989-05-07 12:00:00 TS -12.4400 150.160 35 995 bom main 190 190 O_____O_O_O_O_ jtwc_sh SH271989 -12.3000 150.300 35 0 -12.8000 149.700 30 35 995 3.00000 188 3 6 -12.5000 150.200 45 987 -12.3000 150.300 2 35 -12.3000 150.300 TC 35 49 49 9 278
1989122S09162 1989 36 SP EA MEENA 1989-05-07 15:00:00 TS -12.4526 149.685 main 208 208 P_____P_P_P_P_ SH271989 -12.3626 149.835 35 0 -12.7775 149.050 30 35 995 174 -12.4923 149.793 42 988 -12.2681 149.910 2 35 -12.3626 149.835 TC 35 9 265
1989122S09162 1989 36 SP EA MEENA 1989-05-07 18:00:00 TS -12.5248 149.230 35 995 bom main 226 226 O_____O_O_P_O_ jtwc_sh SH271989 -12.5000 149.400 35 0 -12.8000 148.400 30 35 995 3.00000 161 3 6 -12.5000 149.400 40 990 -12.3241 149.551 2 35 -12.5000 149.400 TC 35 49 49 8 263
1989122S09162 1989 36 SP EA MEENA 1989-05-07 21:00:00 TS -12.5495 148.837 main 244 244 P_____P_P_P_P_ SH271989 -12.5073 149.092 35 0 -12.8148 147.835 30 35 995 161 -12.4999 148.973 40 990 -12.4181 149.191 2 35 -12.5073 149.092 TC 35 8 267
1989122S09162 1989 36 SP EA MEENA 1989-05-08 00:00:00 TS -12.5600 148.440 35 995 bom main 265 265 O_____O_O_O_O_ jtwc_sh SH271989 -12.5000 148.800 35 0 -12.8000 147.300 30 35 995 3.00000 161 3 6 -12.5000 148.500 40 990 -12.5000 148.800 2 35 -12.5000 148.800 TC 35 49 49 8 269
1989122S09162 1989 36 SP EA MEENA 1989-05-08 03:00:00 TS -12.5664 148.003 main 268 268 P_____P_P_P_P_ SH271989 -12.5648 148.445 35 0 -12.7074 146.750 30 35 995 147 -12.5074 147.980 40 990 -12.4875 148.396 2 35 -12.5648 148.445 TC 35 9 271
1989122S09162 1989 36 SP EA MEENA 1989-05-08 06:00:00 TS -12.5512 147.510 35 995 bom main 274 263 O_____O_O_P_O_ jtwc_sh SH271989 -12.6000 148.000 35 0 -12.6000 146.200 30 35 995 3.00000 134 3 6 -12.5000 147.400 40 990 -12.4559 147.949 2 35 -12.6000 148.000 TC 35 49 49 10 274
1989122S09162 1989 36 SP EA MEENA 1989-05-08 09:00:00 TS -12.4901 146.955 main 279 279 P_____P_P_P_P_ SH271989 -12.5146 147.482 35 0 -12.5425 145.635 30 35 996 134 -12.4575 146.750 40 990 -12.4215 147.428 2 35 -12.5146 147.482 TC 35 12 276
1989122S09162 1989 36 SP EA MEENA 1989-05-08 12:00:00 TS -12.4200 146.320 35 998 bom main 288 234 O_____O_O_O_O_ jtwc_sh SH271989 -12.4000 146.800 35 0 -12.5000 145.100 30 35 998 3.00000 134 3 6 -12.4000 146.100 40 990 -12.4000 146.800 2 35 -12.4000 146.800 TC 35 49 49 13 275
1989122S09162 1989 36 SP EA MEENA 1989-05-08 15:00:00 TS -12.3691 145.581 main 234 155 P_____P_P_P_P_ SH271989 -12.3204 145.880 32 -1 -12.4423 144.643 30 35 999 120 -12.3497 145.550 37 992 -12.4127 145.952 2 33 -12.3204 145.880 TC 32 15 273
1989122S09162 1989 36 SP EA MEENA 1989-05-08 18:00:00 TS -12.3476 144.803 35 1000 bom main 155 79 O_____O_O_P_O_ jtwc_sh SH271989 -12.3000 144.900 30 -1 -12.4000 144.200 30 35 1000 3.00000 107 2 9 -12.3000 145.000 35 995 -12.4381 145.013 2 32 -12.3000 144.900 TC 30 49 49 15 270
1989122S09162 1989 36 SP EA MEENA 1989-05-08 21:00:00 TS -12.3769 144.032 main 68 21 P_____P_P_P_P_ SH271989 -12.3850 144.010 30 -1 -12.4000 143.700 30 35 1002 93 -12.2452 144.347 32 996 -12.4690 144.092 2 31 -12.3850 144.010 TC 30 14 267
1989122S09162 1989 36 SP EA MEENA 1989-05-09 00:00:00 TS -12.4200 143.360 35 1004 bom main 21 0 O_____O_O_O_O_ jtwc_sh SH271989 -12.5000 143.300 30 -1 -12.4000 143.200 30 35 1004 3.00000 80 2 9 -12.2000 143.700 30 997 -12.5000 143.300 1 30 -12.5000 143.300 TC 30 49 49 11 266
1989122S09162 1989 36 SP EA MEENA 1989-05-09 03:00:00 TS -12.4521 142.923 main 0 0 P_____P_P_P_P_ SH271989 -12.5645 142.890 27 -1 -12.3573 142.757 30 30 1004 66 -12.1989 143.232 30 997 -12.5753 142.847 1 27 -12.5645 142.890 TC 27 8 266
1989122S09162 1989 36 SP EA MEENA 1989-05-09 06:00:00 TS -12.4723 142.572 25 1004 bom main 0 0 O_____O_P_P_O_ jtwc_sh SH271989 -12.6000 142.600 25 -1 -12.3000 142.300 20 25 1004 53 2 9 -12.2172 142.838 30 997 -12.6441 142.521 1 25 -12.6000 142.600 TC 25 45 45 7 267
1989122S09162 1989 36 SP EA MEENA 1989-05-09 09:00:00 TS -12.4955 142.184 main 0 0 P_____P_P_P_P_ SH271989 -12.6672 142.260 22 -1 -12.2500 141.765 20 22 1004 66 -12.2270 142.425 30 997 -12.6660 142.210 1 22 -12.6672 142.260 TC 22 9 272
1989122S09162 1989 36 SP EA MEENA 1989-05-09 12:00:00 TS -12.4400 141.700 20 1005 bom main 0 0 O_____O_O_O_O_ jtwc_sh SH271989 -12.6000 141.800 20 -1 -12.2000 141.200 20 20 1005 1.50000 80 2 9 -12.2000 141.900 30 997 -12.6000 141.800 1 20 -12.6000 141.800 TC 20 45 45 12 284
1989122S09162 1989 36 SP EA MEENA 1989-05-09 15:00:00 TS -12.2147 141.033 main 76 76 P_____P_P_P_P_ SH271989 -12.2301 141.109 22 -1 -12.1573 140.665 20 20 1005 80 -12.1097 141.196 30 997 -12.3463 141.085 1 21 -12.2301 141.109 TC 22 15 290
1989122S09162 1989 36 SP EA MEENA 1989-05-09 18:00:00 TS -11.9389 140.267 20 1005 bom main 156 156 O_____O_O_P_O_ jtwc_sh SH271989 -11.8000 140.300 25 -1 -12.1000 140.100 20 20 1005 1.50000 80 2 9 -12.0000 140.400 30 997 -12.0097 140.270 1 22 -11.8000 140.300 TC 25 45 45 16 288
1989122S09162 1989 36 SP EA MEENA 1989-05-09 21:00:00 TS -11.7054 139.472 main 245 215 P_____P_P_P_P_ SH271989 -11.5177 139.462 25 -1 -12.0224 139.473 20 17 1006 66 -11.8972 139.560 30 997 -11.6680 139.444 1 23 -11.5177 139.462 TC 25 16 285
1989122S09162 1989 36 SP EA MEENA 1989-05-10 00:00:00 TS -11.5187 138.719 15 1007 bom main 205 158 O_____O_O_O_O_ jtwc_sh SH271989 -11.4000 138.700 25 -1 -11.9000 138.800 20 15 1007 1.00000 53 2 9 -11.8000 138.700 30 997 -11.4000 138.700 1 25 -11.4000 138.700 TC 25 45 45 13 279
1989122S09162 1989 36 SP EA MEENA 1989-05-10 03:00:00 TS -11.5063 138.140 main 149 109 P_____P___P_P_ SH271989 -11.5422 138.141 25 -1 -11.7178 138.105 20 15 1006 -11.3289 138.158 1 25 -11.5422 138.141 TC 25 10 267
1989122S09162 1989 36 SP EA MEENA 1989-05-10 06:00:00 TS -11.5734 137.678 15 1006 bom main 109 89 O_____O___P_O_ jtwc_sh SH271989 -11.7000 137.700 25 -1 -11.5000 137.400 20 15 1006 1.00000 2 9 -11.3386 137.704 1 25 -11.7000 137.700 TC 25 45 45 8 269
1989122S09162 1989 36 SP EA MEENA 1989-05-10 09:00:00 TS -11.5179 137.294 main 95 80 P_________P_P_ SH271989 -11.5873 137.292 25 -1 20 -11.3791 137.298 1 25 -11.5873 137.292 TC 25 8 283
1989122S09162 1989 36 SP EA MEENA 1989-05-10 12:00:00 TS -11.4000 136.900 main 80 70 O_________O_O_ jtwc_sh SH271989 -11.4000 136.900 25 -1 -11.4000 136.900 1 25 -11.4000 136.900 TC 25 8 284
1989122S09162 1989 36 SP EA MEENA 1989-05-10 15:00:00 TS -11.3156 136.464 main 78 78 P_________P_P_ SH271989 -11.2925 136.458 25 -1 -11.3620 136.478 1 25 -11.2925 136.458 TC 25 9 281
1989122S09162 1989 36 SP EA MEENA 1989-05-10 18:00:00 TS -11.2237 136.010 main 103 100 O_________P_O_ jtwc_sh SH271989 -11.2000 136.000 25 -1 -11.2711 136.031 1 25 -11.2000 136.000 TC 25 9 283
1989122S09162 1989 36 SP EA MEENA 1989-05-10 21:00:00 TS -11.1166 135.555 main 111 111 P_________P_P_ SH271989 -11.1026 135.547 25 -1 -11.1446 135.569 1 25 -11.1026 135.547 TC 25 9 284
1989122S09162 1989 36 SP EA MEENA 1989-05-11 00:00:00 TS -11.0000 135.100 main 127 O_________O_O_ jtwc_sh SH271989 -11.0000 135.100 25 -1 -11.0000 135.100 1 25 -11.0000 135.100 TC 25 9 285

デジタル台風データ・検索

IBTrACS Databaseについて

本データベースは、米国NOAAが公開する1842年以降の世界の熱帯低気圧のベストトラックデータアーカイブInternational Best Track Archive for Climate Stewardship (IBTrACS)を、ウェブで閲覧しやすい形式に変換したものです。

最終更新日:2021-10-19